createdAt,value
2019-01-03T00:04:02.880Z,100834.67
2019-01-03T00:08:26.630Z,100848.19
2019-01-03T00:12:49.859Z,100844.72
2019-01-03T00:17:13.130Z,100856.93
2019-01-03T00:21:36.342Z,100861.42
2019-01-03T00:25:59.574Z,100878.72
2019-01-03T00:30:24.361Z,100882.12
2019-01-03T00:34:47.564Z,100891.64
2019-01-03T00:39:10.759Z,100891.95
2019-01-03T00:43:33.970Z,100903.11
2019-01-03T00:47:57.154Z,100903.89
2019-01-03T00:52:20.370Z,100910.36
2019-01-03T00:56:43.548Z,100932.14
2019-01-03T01:01:06.730Z,100961.20
2019-01-03T01:05:30.015Z,100964.62
2019-01-03T01:09:53.197Z,100957.95
2019-01-03T01:14:16.459Z,100965.81
2019-01-03T01:18:39.645Z,100965.41
2019-01-03T01:27:41.290Z,100981.05
2019-01-03T01:32:04.470Z,100988.51
2019-01-03T01:36:27.642Z,100984.93
2019-01-03T01:40:50.822Z,100992.98
2019-01-03T01:45:14.034Z,100982.98
2019-01-03T01:49:38.702Z,100986.17
2019-01-03T01:54:01.881Z,100986.39
2019-01-03T01:58:25.478Z,100987.98
2019-01-03T02:02:48.651Z,100989.27
2019-01-03T02:07:11.806Z,100984.58
2019-01-03T02:11:36.881Z,100985.50
2019-01-03T02:16:00.196Z,100991.45
2019-01-03T02:20:24.338Z,101002.38
2019-01-03T02:24:47.525Z,100982.91
2019-01-03T02:29:10.698Z,100997.02
2019-01-03T02:33:33.891Z,100994.46
2019-01-03T02:37:57.085Z,101002.91
2019-01-03T02:42:20.291Z,100996.75
2019-01-03T02:51:08.746Z,100994.49
2019-01-03T02:55:31.915Z,100991.09
2019-01-03T02:59:55.187Z,100996.67
2019-01-03T03:04:18.331Z,101005.39
2019-01-03T03:08:43.435Z,100997.93
2019-01-03T03:13:06.712Z,101006.09
2019-01-03T03:17:31.589Z,100995.05
2019-01-03T03:26:11.940Z,100996.31
2019-01-03T03:30:35.170Z,100993.77
2019-01-03T03:34:58.357Z,100989.11
2019-01-03T03:39:21.581Z,100992.39
2019-01-03T03:43:44.725Z,100991.20
2019-01-03T03:47:57.432Z,100982.48
2019-01-03T03:52:20.733Z,100986.17
2019-01-03T03:56:43.976Z,100983.20
2019-01-03T04:01:07.137Z,100991.17
2019-01-03T04:05:30.308Z,100979.86
2019-01-03T04:09:53.461Z,100981.45
2019-01-03T04:14:16.655Z,100986.05
2019-01-03T04:23:20.646Z,100993.48
2019-01-03T04:27:43.842Z,100985.02
2019-01-03T04:32:07.048Z,100985.23
2019-01-03T04:36:30.204Z,100987.04
2019-01-03T04:40:53.445Z,100990.63
2019-01-03T04:45:16.604Z,101003.77
2019-01-03T04:49:48.568Z,101001.77
2019-01-03T04:54:11.757Z,101006.56
2019-01-03T04:58:37.343Z,101006.83
2019-01-03T05:03:00.565Z,101017.28
2019-01-03T05:11:49.058Z,101033.87
2019-01-03T05:16:12.316Z,101032.22
2019-01-03T05:20:35.554Z,101034.09
2019-01-03T05:29:25.923Z,101032.22
2019-01-03T05:33:49.174Z,101026.94
2019-01-03T05:38:12.356Z,101039.24
2019-01-03T05:42:35.547Z,101041.94
2019-01-03T05:46:58.750Z,101044.22
2019-01-03T05:51:22.018Z,101047.84
2019-01-03T05:55:45.212Z,101050.80
2019-01-03T06:00:08.402Z,101061.14
2019-01-03T06:04:31.541Z,101073.59
2019-01-03T06:08:54.725Z,101063.92
2019-01-03T06:13:17.914Z,101076.16
2019-01-03T06:17:33.806Z,101088.00
2019-01-03T06:21:56.992Z,101080.03
2019-01-03T06:26:20.152Z,101083.28
2019-01-03T06:30:43.385Z,101086.09
2019-01-03T06:35:06.600Z,101083.50
2019-01-03T06:39:29.762Z,101082.62
2019-01-03T06:43:51.868Z,101083.50
2019-01-03T06:48:20.058Z,101088.20
2019-01-03T06:52:40.292Z,101097.73
2019-01-03T06:57:03.540Z,101106.30
2019-01-03T07:01:26.722Z,101110.36
2019-01-03T07:05:49.918Z,101123.92
2019-01-03T07:10:13.142Z,101123.52
2019-01-03T07:14:36.308Z,101116.97
2019-01-03T07:18:59.514Z,101121.36
2019-01-03T07:28:06.368Z,101124.57
2019-01-03T07:32:29.549Z,101126.75
2019-01-03T07:36:52.733Z,101126.27
2019-01-03T07:41:15.907Z,101132.55
2019-01-03T07:45:39.330Z,101146.27
2019-01-03T07:50:02.507Z,101141.30
2019-01-03T07:54:25.687Z,101132.36
2019-01-03T07:58:48.846Z,101144.00
2019-01-03T08:03:12.050Z,101144.52
2019-01-03T08:07:35.251Z,101142.00
2019-01-03T08:11:58.406Z,101140.15
2019-01-03T08:16:21.583Z,101150.72
2019-01-03T08:25:10.093Z,101129.42
2019-01-03T08:29:33.245Z,101135.50
2019-01-03T08:33:59.037Z,101120.86
2019-01-03T08:38:23.329Z,101127.66
2019-01-03T08:42:46.571Z,101124.87
2019-01-03T08:47:09.875Z,101123.80
2019-01-03T08:51:33.079Z,101121.98
2019-01-03T08:55:56.237Z,101127.88
2019-01-03T09:00:23.092Z,101117.22
2019-01-03T09:04:46.270Z,101133.17
2019-01-03T09:09:09.453Z,101118.52
2019-01-03T09:13:34.451Z,101112.64
2019-01-03T09:17:57.620Z,101109.57
2019-01-03T09:22:20.823Z,101114.45
2019-01-03T09:26:43.970Z,101112.55
2019-01-03T09:31:07.195Z,101100.69
2019-01-03T09:35:30.400Z,101101.61
2019-01-03T09:39:53.996Z,101107.28
2019-01-03T09:44:17.125Z,101105.87
2019-01-03T09:48:21.377Z,101097.13
2019-01-03T09:52:25.629Z,101095.84
2019-01-03T09:56:29.890Z,101089.38
2019-01-03T10:00:34.097Z,101095.85
2019-01-03T10:04:38.360Z,101094.56
2019-01-03T10:08:42.631Z,101084.67
2019-01-03T10:12:47.015Z,101067.53
2019-01-03T10:16:51.653Z,101059.08
2019-01-03T10:20:55.921Z,101066.95
2019-01-03T10:25:00.223Z,101037.64
2019-01-03T10:29:04.697Z,101031.16
2019-01-03T10:33:08.935Z,101012.34
2019-01-03T10:37:13.158Z,100995.20
2019-01-03T10:41:17.421Z,100981.83
2019-01-03T10:45:21.718Z,100973.06
2019-01-03T10:49:25.937Z,100963.11
2019-01-03T10:53:30.205Z,100969.06
2019-01-03T10:57:34.420Z,100951.02
2019-01-03T11:01:38.694Z,100961.08
2019-01-03T11:05:42.925Z,100934.61
2019-01-03T11:09:47.214Z,100917.16
2019-01-03T11:13:51.472Z,100920.06
2019-01-03T11:17:55.776Z,100908.09
2019-01-03T11:22:00.054Z,100910.99
2019-01-03T11:26:04.328Z,100910.77
2019-01-03T11:30:09.630Z,100906.37
2019-01-03T11:34:13.944Z,100885.16
2019-01-03T11:38:18.246Z,100889.41
2019-01-03T11:42:22.473Z,100896.64
2019-01-03T11:46:26.743Z,100877.72
2019-01-03T11:50:31.014Z,100871.84
2019-01-03T11:54:35.243Z,100861.05
2019-01-03T11:58:39.526Z,100852.46
2019-01-03T12:02:43.786Z,100851.58
2019-01-03T12:06:48.385Z,100856.44
2019-01-03T12:10:52.711Z,100852.23
2019-01-03T12:14:57.572Z,100843.27
2019-01-03T12:19:02.143Z,100826.48
2019-01-03T12:23:06.566Z,100842.82
2019-01-03T12:27:10.847Z,100833.09
2019-01-03T12:31:15.094Z,100833.56
2019-01-03T12:35:19.355Z,100831.41
2019-01-03T12:39:23.627Z,100834.86
2019-01-03T12:43:27.857Z,100834.03
2019-01-03T12:47:32.106Z,100830.47
2019-01-03T12:51:36.327Z,100844.05
2019-01-03T12:55:40.590Z,100847.94
2019-01-03T12:59:44.869Z,100848.75
2019-01-03T13:03:49.147Z,100850.59
2019-01-03T13:07:53.413Z,100856.11
2019-01-03T13:11:57.627Z,100857.41
2019-01-03T13:16:01.900Z,100858.34
2019-01-03T13:20:06.776Z,100865.51
2019-01-03T13:24:10.967Z,100865.09
2019-01-03T13:32:25.334Z,100861.10
2019-01-03T13:36:29.683Z,100873.26
2019-01-03T13:40:33.942Z,100881.91
2019-01-03T13:44:38.229Z,100866.06
2019-01-03T13:48:42.679Z,100866.98
2019-01-03T13:52:46.888Z,100863.58
2019-01-03T13:56:51.154Z,100878.73
2019-01-03T14:00:55.397Z,100874.13
2019-01-03T14:04:59.678Z,100876.82
2019-01-03T14:13:47.540Z,100864.38
2019-01-03T14:17:51.819Z,100867.73
2019-01-03T14:21:56.092Z,100869.51
2019-01-03T14:26:00.329Z,100879.08
2019-01-03T14:30:25.311Z,100867.11
2019-01-03T14:34:48.623Z,100877.00
2019-01-03T14:38:52.887Z,100869.51
2019-01-03T14:42:57.163Z,100870.45
2019-01-03T14:47:01.360Z,100866.06
2019-01-03T14:51:05.604Z,100869.59
2019-01-03T14:59:59.142Z,100867.84
2019-01-03T15:04:03.408Z,100869.45
2019-01-03T15:08:07.675Z,100881.00
2019-01-03T15:12:11.925Z,100886.79
2019-01-03T15:16:16.138Z,100882.80
2019-01-03T15:20:20.411Z,100882.39
2019-01-03T15:24:24.686Z,100886.58
2019-01-03T15:28:28.941Z,100899.72
2019-01-03T15:32:33.243Z,100913.84
2019-01-03T15:36:37.516Z,100917.22
2019-01-03T15:40:41.747Z,100915.63
2019-01-03T15:44:46.023Z,100926.48
2019-01-03T15:48:50.293Z,100939.21
2019-01-03T15:52:54.547Z,100945.47
2019-01-03T15:56:58.970Z,100950.95
2019-01-03T16:01:03.962Z,100954.16
2019-01-03T16:05:08.662Z,100968.95
2019-01-03T16:09:12.890Z,100970.66
2019-01-03T16:13:17.163Z,100974.32
2019-01-03T16:17:21.435Z,100974.92
2019-01-03T16:21:25.686Z,100983.08
2019-01-03T16:25:29.946Z,100981.05
2019-01-03T16:29:34.212Z,100983.16
2019-01-03T16:33:38.481Z,100981.57
2019-01-03T16:37:42.776Z,100975.81
2019-01-03T16:41:47.002Z,100980.58
2019-01-03T16:45:51.277Z,100981.05
2019-01-03T16:49:56.091Z,100995.59
2019-01-03T16:54:01.594Z,100998.97
2019-01-03T16:58:05.896Z,100991.05
2019-01-03T17:02:10.166Z,100986.66
2019-01-03T17:06:14.454Z,100990.94
2019-01-03T17:10:19.289Z,100991.20
2019-01-03T17:14:23.542Z,100997.97
2019-01-03T17:18:27.805Z,101003.45
2019-01-03T17:22:32.124Z,101017.56
2019-01-03T17:26:36.492Z,101013.20
2019-01-03T17:30:41.068Z,101018.83
2019-01-03T17:34:45.373Z,101021.50
2019-01-03T17:38:49.686Z,101027.27
2019-01-03T17:42:53.953Z,101033.91
2019-01-03T17:46:58.240Z,101043.73
2019-01-03T17:51:02.905Z,101053.16
2019-01-03T17:55:08.185Z,101054.34
2019-01-03T17:59:12.493Z,101045.19
2019-01-03T18:03:16.747Z,101061.80
2019-01-03T18:07:21.020Z,101062.09
2019-01-03T18:11:25.277Z,101061.66
2019-01-03T18:15:29.658Z,101064.23
2019-01-03T18:19:33.959Z,101072.77
2019-01-03T18:23:38.517Z,101076.45
2019-01-03T18:27:42.797Z,101086.56
2019-01-03T18:31:47.020Z,101090.55
2019-01-03T18:35:51.552Z,101092.02
2019-01-03T18:39:55.880Z,101092.80
2019-01-03T18:44:00.163Z,101100.03
2019-01-03T18:48:04.466Z,101100.33
2019-01-03T18:52:08.705Z,101104.09
2019-01-03T18:56:12.987Z,101113.02
2019-01-03T19:00:17.252Z,101116.00
2019-01-03T19:04:21.477Z,101129.21
2019-01-03T19:08:25.829Z,101124.73
2019-01-03T19:12:30.105Z,101124.40
2019-01-03T19:16:34.371Z,101125.17
2019-01-03T19:20:38.654Z,101116.30
2019-01-03T19:24:42.914Z,101126.64
2019-01-03T19:28:47.250Z,101136.48
2019-01-03T19:32:51.520Z,101139.19
2019-01-03T19:36:55.809Z,101149.88
2019-01-03T19:41:00.034Z,101146.30
2019-01-03T19:45:04.393Z,101149.94
2019-01-03T19:49:08.690Z,101150.05
2019-01-03T19:53:13.266Z,101165.44
2019-01-03T19:57:17.478Z,101158.92
2019-01-03T20:01:21.735Z,101162.97
2019-01-03T20:05:26.142Z,101164.25
2019-01-03T20:09:30.417Z,101166.64
2019-01-03T20:13:34.699Z,101169.22
2019-01-03T20:17:57.993Z,101170.39
2019-01-03T20:22:02.403Z,101179.20
2019-01-03T20:26:44.792Z,101180.66
2019-01-03T20:30:49.149Z,101186.59
2019-01-03T20:35:12.415Z,101180.07
2019-01-03T20:39:19.070Z,101182.53
2019-01-03T20:48:14.645Z,101184.06
2019-01-03T20:52:20.603Z,101186.48
2019-01-03T20:56:26.971Z,101186.59
2019-01-03T21:00:34.068Z,101189.45
2019-01-03T21:04:40.708Z,101189.98
2019-01-03T21:08:45.495Z,101194.10
2019-01-03T21:12:49.832Z,101202.37
2019-01-03T21:16:54.247Z,101208.05
2019-01-03T21:20:58.858Z,101200.14
2019-01-03T21:25:03.262Z,101206.72
2019-01-03T21:29:07.555Z,101210.30
2019-01-03T21:33:11.923Z,101207.84
2019-01-03T21:37:16.226Z,101214.55
2019-01-03T21:41:20.608Z,101218.21
2019-01-03T21:45:25.011Z,101225.67
2019-01-03T21:49:29.407Z,101219.63
2019-01-03T21:53:34.149Z,101226.84
2019-01-03T21:57:38.535Z,101232.53
2019-01-03T22:01:42.822Z,101219.10
2019-01-03T22:05:47.120Z,101223.98
2019-01-03T22:09:51.368Z,101225.39
2019-01-03T22:13:55.670Z,101234.83
2019-01-03T22:18:00.263Z,101232.48
2019-01-03T22:22:04.483Z,101240.44
2019-01-03T22:26:08.749Z,101232.64
2019-01-03T22:30:13.135Z,101229.41
2019-01-03T22:34:17.403Z,101232.36
2019-01-03T22:38:21.695Z,101235.58
2019-01-03T22:42:25.983Z,101246.56
2019-01-03T22:46:30.201Z,101238.81
2019-01-03T22:50:34.529Z,101235.45
2019-01-03T22:54:38.809Z,101224.84
2019-01-03T22:58:43.041Z,101232.88
2019-01-03T23:02:47.326Z,101240.10
2019-01-03T23:06:51.589Z,101241.48
2019-01-03T23:10:55.918Z,101243.98
2019-01-03T23:15:00.220Z,101247.36
2019-01-03T23:19:04.431Z,101249.95
2019-01-03T23:23:08.718Z,101253.25
2019-01-03T23:27:12.931Z,101256.89
2019-01-03T23:31:17.195Z,101252.70
2019-01-03T23:35:21.689Z,101254.52
2019-01-03T23:39:25.945Z,101253.63
2019-01-03T23:43:30.192Z,101256.09
2019-01-03T23:47:34.485Z,101251.38
2019-01-03T23:51:38.809Z,101256.66
